National Weather Service Raw Text Product

Displaying AFOS PIL: TAFMCW Received: 2017-12-07 00:58 UTC


734 
FTUS43 KDMX 070058 AAA
TAFMCW
TAF AMD
KMCW 070058Z 0701/0724 31019G27KT 5SM -SN OVC020
      TEMPO 0701/0703 2SM -SN
     FM070400 32020G28KT P6SM BKN025
     FM070500 32019G27KT P6SM BKN035
     FM071200 32014G22KT P6SM SCT250
     FM072300 28010KT P6SM FEW250=